Time;durP1;ratioP1;P1;durP2;ratioP2;P2;SDS_P1;SDS_P2;PMS_P1;PMS_P2;Temp;Humidity;BMP_temperature;BMP_pressure;BME280_temperature;BME280_humidity;BME280_pressure;Samples;Min_cycle;Max_cycle;Signal;HPM_P1;HPM_P2
2021/01/13 00:01:30;;;;;;;11.43;3.83;;;;;;;-0.52;91.35;100061.84;5063324;28;20241;-67
2021/01/13 00:03:56;;;;;;;15.57;3.03;;;;;;;-0.62;91.86;100061.47;5064772;28;20461;-66
2021/01/13 00:06:22;;;;;;;14.10;3.70;;;;;;;-0.53;91.57;100054.91;5063255;28;20538;-67
2021/01/13 00:08:49;;;;;;;9.13;3.33;;;;;;;-0.50;91.35;100045.09;5064845;28;20246;-67
2021/01/13 00:11:16;;;;;;;8.38;2.63;;;;;;;-0.50;91.13;100060.03;5062239;28;20503;-67
2021/01/13 00:13:42;;;;;;;9.33;3.20;;;;;;;-0.52;91.15;100053.97;5064811;28;20199;-67
2021/01/13 00:16:08;;;;;;;9.20;3.03;;;;;;;-0.51;91.16;100068.81;5051323;28;20501;-67
2021/01/13 00:18:35;;;;;;;8.37;2.73;;;;;;;-0.54;91.59;100066.31;5058737;28;20297;-67
2021/01/13 00:21:03;;;;;;;15.17;3.67;;;;;;;-0.58;91.72;100063.84;5062760;28;20492;-67
2021/01/13 00:23:29;;;;;;;33.27;3.70;;;;;;;-0.47;91.25;100062.47;5064255;28;20449;-67
2021/01/13 00:25:56;;;;;;;9.73;3.53;;;;;;;-0.51;91.45;100055.69;5062462;28;20496;-67
2021/01/13 00:28:22;;;;;;;9.73;2.70;;;;;;;-0.46;91.30;100057.16;5064188;28;21041;-67
2021/01/13 00:30:48;;;;;;;5.87;2.80;;;;;;;-0.46;91.39;100058.94;5062868;28;20472;-67
2021/01/13 00:33:15;;;;;;;6.03;2.83;;;;;;;-0.42;91.38;100061.34;5064536;28;20483;-67
2021/01/13 00:35:41;;;;;;;8.00;3.23;;;;;;;-0.34;91.42;100062.75;5062044;28;20515;-67
2021/01/13 00:38:09;;;;;;;9.20;3.30;;;;;;;-0.23;91.23;100058.63;5064628;28;20436;-67
2021/01/13 00:40:35;;;;;;;15.23;4.30;;;;;;;-0.11;91.07;100067.69;5062467;28;20476;-67
2021/01/13 00:43:02;;;;;;;10.20;3.03;;;;;;;-0.10;90.20;100061.50;5063372;28;21000;-67
2021/01/13 00:45:28;;;;;;;11.73;2.87;;;;;;;-0.11;90.25;100058.94;5056007;28;20478;-67
2021/01/13 00:47:56;;;;;;;7.10;2.90;;;;;;;-0.15;90.06;100060.03;5044425;28;20445;-67
2021/01/13 00:50:22;;;;;;;12.57;3.57;;;;;;;-0.20;90.33;100058.47;5061103;28;20870;-67
2021/01/13 00:52:49;;;;;;;13.67;4.20;;;;;;;-0.38;90.99;100067.28;5064298;28;20445;-68
2021/01/13 00:55:15;;;;;;;7.20;2.80;;;;;;;-0.34;91.11;100070.63;5061813;28;20461;-67
2021/01/13 00:57:41;;;;;;;13.27;3.47;;;;;;;-0.28;90.99;100080.81;5063192;28;20455;-68
2021/01/13 01:00:10;;;;;;;13.23;4.37;;;;;;;-0.23;90.83;100079.66;5061694;28;20492;-67
2021/01/13 01:02:36;;;;;;;9.07;2.93;;;;;;;-0.19;90.68;100072.50;5063557;28;20433;-67
2021/01/13 01:05:03;;;;;;;13.30;3.67;;;;;;;-0.11;90.16;100066.84;5063167;28;20544;-67
2021/01/13 01:07:29;;;;;;;11.90;3.67;;;;;;;-0.10;90.01;100066.75;5063000;28;20500;-67
2021/01/13 01:09:55;;;;;;;7.60;3.33;;;;;;;-0.20;90.40;100068.16;5063514;28;20441;-67
2021/01/13 01:12:21;;;;;;;17.40;3.67;;;;;;;-0.22;90.15;100067.38;5061323;28;20623;-67
2021/01/13 01:14:47;;;;;;;13.63;3.50;;;;;;;-0.26;90.52;100069.31;5063647;28;20548;-67
2021/01/13 01:17:15;;;;;;;10.83;3.07;;;;;;;-0.36;90.77;100064.56;5051681;28;20496;-67
2021/01/13 01:19:41;;;;;;;15.40;5.53;;;;;;;-0.40;90.97;100063.88;5047425;28;20524;-67
2021/01/13 01:22:07;;;;;;;7.40;3.45;;;;;;;-0.39;91.02;100065.59;5053253;28;20500;-67
2021/01/13 01:24:33;;;;;;;10.67;2.93;;;;;;;-0.42;91.37;100070.97;5044586;28;20222;-67
2021/01/13 01:26:59;;;;;;;14.67;3.20;;;;;;;-0.39;90.96;100061.16;5061704;28;20506;-67
2021/01/13 01:29:25;;;;;;;13.03;3.17;;;;;;;-0.33;90.70;100060.03;5063230;28;20495;-67
2021/01/13 01:31:52;;;;;;;8.60;3.07;;;;;;;-0.27;90.38;100064.13;5061792;28;20500;-67
2021/01/13 01:34:19;;;;;;;7.07;3.10;;;;;;;-0.23;90.63;100068.28;5062713;28;20453;-67
2021/01/13 01:36:45;;;;;;;12.03;4.90;;;;;;;-0.17;90.08;100070.63;5062044;28;20534;-67
2021/01/13 01:39:12;;;;;;;9.40;3.23;;;;;;;-0.18;89.90;100065.44;5063011;28;20561;-67
2021/01/13 01:41:38;;;;;;;12.00;3.83;;;;;;;-0.33;90.38;100067.91;5061750;28;20472;-67
2021/01/13 01:44:04;;;;;;;16.13;3.60;;;;;;;-0.21;90.08;100074.31;5062379;28;20564;-67
2021/01/13 01:46:31;;;;;;;8.02;3.58;;;;;;;-0.29;90.55;100071.25;5061848;28;21006;-67
2021/01/13 01:48:59;;;;;;;6.30;2.83;;;;;;;-0.29;90.29;100069.47;5063138;28;20274;-67
2021/01/13 01:51:27;;;;;;;8.73;3.50;;;;;;;-0.28;90.48;100075.56;5061216;28;21013;-67
2021/01/13 01:54:04;;;;;;;9.33;3.30;;;;;;;-0.27;90.21;100082.50;5063216;28;20448;-67
2021/01/13 01:56:36;;;;;;;13.17;3.60;;;;;;;-0.22;90.08;100076.09;5060961;28;20500;-67
2021/01/13 01:59:04;;;;;;;13.00;2.90;;;;;;;-0.34;90.10;100079.34;5062343;28;20460;-67
2021/01/13 02:01:32;;;;;;;8.13;3.13;;;;;;;-0.29;90.10;100066.81;5060770;28;21087;-67
2021/01/13 02:04:04;;;;;;;8.43;3.50;;;;;;;-0.39;90.17;100074.31;5062758;28;20977;-67
2021/01/13 02:06:33;;;;;;;6.37;3.00;;;;;;;-0.47;90.54;100073.84;5060942;28;20630;-67
2021/01/13 02:08:59;;;;;;;11.00;3.70;;;;;;;-0.49;90.62;100075.66;5062861;28;20481;-67
2021/01/13 02:11:28;;;;;;;17.43;3.40;;;;;;;-0.46;90.52;100078.16;5060091;28;20525;-67
2021/01/13 02:13:54;;;;;;;10.70;3.57;;;;;;;-0.48;90.57;100068.66;5041842;28;20449;-67
2021/01/13 02:16:21;;;;;;;10.67;4.53;;;;;;;-0.48;90.32;100068.66;5053859;28;20483;-67
2021/01/13 02:18:48;;;;;;;9.77;4.00;;;;;;;-0.50;90.35;100068.75;5062415;28;20583;-67
2021/01/13 02:21:15;;;;;;;6.23;2.53;;;;;;;-0.58;90.95;100076.97;5060622;28;20516;-67
2021/01/13 02:23:47;;;;;;;11.25;3.15;;;;;;;-0.54;90.85;100058.44;5062747;28;20436;-67
2021/01/13 02:26:52;;;;;;;9.18;3.30;;;;;;;-0.57;90.92;100062.09;5060653;28;20258;-67
2021/01/13 02:29:40;;;;;;;6.03;3.30;;;;;;;-0.60;90.71;100065.69;5061885;28;20249;-67
2021/01/13 02:32:13;;;;;;;7.47;3.03;;;;;;;-0.59;90.51;100064.78;5061269;28;20529;-67
2021/01/13 02:34:54;;;;;;;12.20;4.03;;;;;;;-0.51;90.48;100059.16;5061825;28;20467;-67
2021/01/13 02:37:36;;;;;;;7.90;3.57;;;;;;;-0.51;90.11;100074.91;5061147;28;20511;-67
2021/01/13 02:40:08;;;;;;;7.97;2.77;;;;;;;-0.52;90.42;100070.59;5061582;28;20520;-67
2021/01/13 02:42:37;;;;;;;10.57;3.30;;;;;;;-0.57;90.44;100064.72;5060816;28;20519;-67
2021/01/13 02:45:15;;;;;;;11.67;5.13;;;;;;;-0.53;90.59;100083.78;5062544;28;20456;-67
2021/01/13 02:48:06;;;;;;;16.53;3.77;;;;;;;-0.48;90.10;100077.38;5061118;28;20511;-67
2021/01/13 02:50:35;;;;;;;10.30;3.90;;;;;;;-0.44;90.11;100075.47;5057170;28;20459;-67
2021/01/13 02:53:46;;;;;;;4.93;2.63;;;;;;;-0.45;89.63;100065.88;5053693;28;20446;-67
2021/01/13 02:56:31;;;;;;;10.10;3.53;;;;;;;-0.46;90.02;100066.81;5040974;28;20479;-67
2021/01/13 02:59:04;;;;;;;7.57;3.10;;;;;;;-0.35;89.61;100072.38;5048350;28;20460;-67
2021/01/13 03:01:31;;;;;;;8.90;3.57;;;;;;;-0.33;89.31;100074.94;5060724;28;21065;-67
2021/01/13 03:03:58;;;;;;;6.43;4.00;;;;;;;-0.34;89.22;100071.47;5062156;28;20532;-67
2021/01/13 03:06:29;;;;;;;9.73;3.87;;;;;;;-0.39;89.45;100069.03;5059955;28;20500;-67
2021/01/13 03:09:01;;;;;;;16.63;4.07;;;;;;;-0.39;89.56;100073.47;5061954;28;20437;-67
2021/01/13 03:11:28;;;;;;;17.97;3.40;;;;;;;-0.43;89.25;100075.38;5059739;28;20479;-66
2021/01/13 03:13:57;;;;;;;9.87;3.73;;;;;;;-0.46;89.56;100077.31;5062114;28;20449;-67
2021/01/13 03:16:28;;;;;;;9.60;3.80;;;;;;;-0.42;89.56;100070.97;5060381;28;20504;-67
2021/01/13 03:19:01;;;;;;;10.63;4.27;;;;;;;-0.42;89.56;100056.09;5061659;28;20512;-67
2021/01/13 03:21:32;;;;;;;9.97;4.10;;;;;;;-0.37;88.89;100068.97;5059734;28;20505;-67
2021/01/13 03:24:07;;;;;;;10.87;3.37;;;;;;;-0.34;88.96;100066.22;5042409;28;20598;-67
2021/01/13 03:26:36;;;;;;;11.47;3.10;;;;;;;-0.28;88.63;100070.28;5043162;28;20465;-67
2021/01/13 03:29:02;;;;;;;19.73;4.47;;;;;;;-0.30;88.96;100077.41;5064831;28;20480;-67
2021/01/13 03:31:30;;;;;;;8.50;3.43;;;;;;;-0.29;88.59;100068.63;5063933;28;20541;-67
2021/01/13 03:34:25;;;;;;;8.03;3.60;;;;;;;-0.29;88.53;100079.97;5065857;28;20449;-67
2021/01/13 03:36:57;;;;;;;9.57;3.80;;;;;;;-0.30;88.73;100078.25;5057263;28;20535;-67
2021/01/13 03:39:26;;;;;;;19.70;4.93;;;;;;;-0.28;88.47;100071.16;5065182;28;20816;-67
2021/01/13 03:42:10;;;;;;;5.70;3.70;;;;;;;-0.26;88.65;100081.56;5063401;28;20476;-67
2021/01/13 03:44:37;;;;;;;7.80;3.57;;;;;;;-0.30;88.51;100077.41;5065462;28;20459;-67
2021/01/13 03:47:46;;;;;;;7.90;3.60;;;;;;;-0.26;88.70;100074.56;5063992;28;20476;-67
2021/01/13 03:50:21;;;;;;;14.00;4.23;;;;;;;-0.26;88.53;100076.31;5063174;28;20960;-67
2021/01/13 03:52:58;;;;;;;10.90;4.60;;;;;;;-0.21;88.28;100076.94;5065651;28;20475;-67
2021/01/13 03:55:29;;;;;;;11.63;5.17;;;;;;;-0.21;88.13;100077.81;5063475;28;20464;-67
2021/01/13 03:58:43;;;;;;;8.73;4.40;;;;;;;-0.24;87.95;100082.38;5064660;28;20483;-67
2021/01/13 04:01:46;;;;;;;10.77;4.77;;;;;;;-0.23;88.32;100079.66;5063378;28;20488;-67
2021/01/13 04:04:43;;;;;;;7.17;4.53;;;;;;;-0.20;88.09;100074.25;5065290;28;20490;-67
2021/01/13 04:07:13;;;;;;;14.87;5.20;;;;;;;-0.20;88.33;100079.50;5063426;28;20504;-67
2021/01/13 04:09:40;;;;;;;7.63;5.33;;;;;;;-0.20;87.95;100069.00;5052787;28;20482;-67
2021/01/13 04:12:09;;;;;;;8.70;4.80;;;;;;;-0.20;88.04;100071.63;5049037;28;20489;-67
2021/01/13 04:14:55;;;;;;;15.20;6.03;;;;;;;-0.24;88.26;100072.69;5064996;28;20464;-67
2021/01/13 04:17:23;;;;;;;8.47;5.37;;;;;;;-0.26;88.42;100066.69;5062485;28;20534;-67
2021/01/13 04:19:49;;;;;;;12.90;6.00;;;;;;;-0.28;88.50;100067.66;5063887;28;20500;-67
2021/01/13 04:22:18;;;;;;;13.43;6.20;;;;;;;-0.19;88.34;100072.50;5063580;28;20903;-67
2021/01/13 04:24:47;;;;;;;13.00;6.70;;;;;;;-0.20;88.15;100060.25;5064480;28;20563;-67
2021/01/13 04:27:13;;;;;;;7.77;6.00;;;;;;;-0.19;88.29;100061.97;5059404;28;20505;-67
2021/01/13 04:29:40;;;;;;;8.70;6.40;;;;;;;-0.14;87.99;100061.72;5064044;28;20481;-67
2021/01/13 04:32:08;;;;;;;17.90;7.40;;;;;;;-0.08;87.90;100053.53;5063221;28;20480;-67
2021/01/13 04:34:35;;;;;;;17.23;7.10;;;;;;;-0.12;88.30;100062.50;5064264;28;20997;-67
2021/01/13 04:37:04;;;;;;;10.20;6.93;;;;;;;-0.09;87.96;100054.47;5061836;28;20515;-67
2021/01/13 04:39:31;;;;;;;8.43;6.90;;;;;;;-0.12;87.82;100060.75;5064319;28;20544;-67
2021/01/13 04:42:06;;;;;;;12.77;7.30;;;;;;;-0.18;88.16;100054.94;5062350;28;20495;-67
2021/01/13 04:44:34;;;;;;;9.30;7.37;;;;;;;-0.23;88.65;100058.63;5064194;28;20480;-67
2021/01/13 04:47:07;;;;;;;17.17;7.73;;;;;;;-0.24;88.83;100050.84;5062762;28;20508;-67
2021/01/13 04:49:34;;;;;;;11.23;7.87;;;;;;;-0.26;89.16;100053.53;5055127;28;20457;-67
2021/01/13 04:52:05;;;;;;;18.23;8.60;;;;;;;-0.15;88.30;100044.28;5062934;28;20508;-67
2021/01/13 04:54:37;;;;;;;10.10;7.30;;;;;;;-0.10;88.46;100045.75;5063940;28;20502;-67
2021/01/13 04:57:11;;;;;;;18.20;7.43;;;;;;;-0.10;88.37;100040.47;5061988;28;20755;-67
2021/01/13 05:00:10;;;;;;;14.77;8.00;;;;;;;-0.06;87.97;100041.16;5063018;28;20466;-67
2021/01/13 05:03:06;;;;;;;30.03;8.47;;;;;;;0.00;88.22;100043.50;5058687;28;20572;-68
2021/01/13 05:05:46;;;;;;;16.53;7.23;;;;;;;0.03;88.03;100032.81;5052920;28;20476;-67
2021/01/13 05:08:27;;;;;;;12.30;7.13;;;;;;;0.02;88.60;100028.50;5063735;28;20532;-67
2021/01/13 05:11:13;;;;;;;10.47;7.43;;;;;;;0.03;88.95;100031.97;5055818;28;20507;-68
2021/01/13 05:13:41;;;;;;;15.57;8.20;;;;;;;0.05;88.38;100038.00;5063405;28;20602;-68
2021/01/13 05:16:10;;;;;;;13.90;7.57;;;;;;;-0.05;88.77;100025.34;5061362;28;20460;-68
2021/01/13 05:18:53;;;;;;;13.13;7.43;;;;;;;0.01;88.81;100020.69;5063361;28;20484;-67
2021/01/13 05:21:20;;;;;;;18.80;7.80;;;;;;;0.02;89.16;100027.63;5059075;28;20508;-68
2021/01/13 05:23:49;;;;;;;12.10;8.13;;;;;;;0.11;89.24;100027.19;5063513;28;20449;-68
2021/01/13 05:26:18;;;;;;;11.37;7.37;;;;;;;0.06;88.93;100031.81;5049476;28;20484;-68
2021/01/13 05:29:27;;;;;;;13.77;6.50;;;;;;;0.00;88.88;100035.63;5047505;28;20481;-68
2021/01/13 05:31:55;;;;;;;12.03;6.33;;;;;;;0.08;89.03;100033.44;5034507;28;20476;-68
2021/01/13 05:34:21;;;;;;;11.80;7.10;;;;;;;-0.01;89.05;100031.28;5044206;28;20896;-68
2021/01/13 05:37:15;;;;;;;11.73;7.30;;;;;;;-0.04;88.95;100020.91;5061555;28;20516;-67
2021/01/13 05:39:45;;;;;;;19.50;8.50;;;;;;;-0.01;88.98;100028.66;5057868;28;20460;-68
2021/01/13 05:42:15;;;;;;;9.20;6.80;;;;;;;-0.04;89.28;100013.03;5061247;28;20533;-68
2021/01/13 05:44:45;;;;;;;11.47;7.70;;;;;;;-0.04;89.26;100020.91;5062932;28;20547;-68
2021/01/13 05:47:35;;;;;;;11.73;6.77;;;;;;;-0.02;89.17;100025.19;5061240;28;20469;-68
2021/01/13 05:50:03;;;;;;;18.10;6.53;;;;;;;0.07;89.16;100028.25;5061649;28;20465;-67
2021/01/13 05:52:31;;;;;;;13.13;7.17;;;;;;;0.03;88.94;100021.47;5062349;28;20460;-68
2021/01/13 05:54:57;;;;;;;11.67;6.80;;;;;;;0.04;89.12;100021.38;5062398;28;20957;-68
2021/01/13 05:57:25;;;;;;;11.13;6.90;;;;;;;0.17;88.27;100018.94;5060173;28;20488;-67
2021/01/13 05:59:52;;;;;;;12.33;7.20;;;;;;;0.21;88.44;100019.63;5062305;28;20523;-67
2021/01/13 06:02:20;;;;;;;8.37;6.60;;;;;;;0.24;88.20;100028.22;5061388;28;20568;-67
2021/01/13 06:04:47;;;;;;;10.33;6.40;;;;;;;0.28;88.07;100019.25;5062103;28;20464;-67
2021/01/13 06:07:18;;;;;;;14.97;6.37;;;;;;;0.30;88.27;100021.81;5061548;28;20544;-67
2021/01/13 06:09:45;;;;;;;10.57;6.27;;;;;;;0.29;88.36;100028.81;5060206;28;20481;-68
2021/01/13 06:12:15;;;;;;;19.10;6.43;;;;;;;0.35;88.30;100022.41;5059795;28;20481;-69
2021/01/13 06:14:42;;;;;;;15.50;6.07;;;;;;;0.34;88.73;100028.59;5060087;28;20445;-69
2021/01/13 06:17:18;;;;;;;9.77;6.33;;;;;;;0.47;88.04;100034.03;5061734;28;20511;-69
2021/01/13 06:19:47;;;;;;;17.33;6.87;;;;;;;0.35;88.60;100030.31;5058924;28;20483;-69
2021/01/13 06:22:14;;;;;;;13.03;6.13;;;;;;;0.40;88.91;100032.66;5058757;28;20519;-68
2021/01/13 06:24:41;;;;;;;9.93;6.73;;;;;;;0.43;88.60;100029.88;5061294;28;20437;-68
2021/01/13 06:27:18;;;;;;;13.10;6.43;;;;;;;0.17;89.55;100030.34;5059914;28;20499;-68
2021/01/13 06:29:49;;;;;;;14.90;6.37;;;;;;;0.17;90.07;100032.09;5060558;28;20512;-69
2021/01/13 06:32:30;;;;;;;13.27;7.33;;;;;;;0.24;89.87;100041.34;5060494;28;21000;-69
2021/01/13 06:35:04;;;;;;;16.60;6.50;;;;;;;0.12;90.26;100045.50;5059339;28;20461;-68
2021/01/13 06:37:45;;;;;;;16.30;6.53;;;;;;;0.12;90.58;100034.97;5057805;28;20526;-69
2021/01/13 06:40:13;;;;;;;9.67;6.33;;;;;;;0.15;90.06;100040.06;5059596;28;20561;-69
2021/01/13 06:42:40;;;;;;;11.70;7.27;;;;;;;0.16;90.31;100038.31;5060531;28;20445;-69
2021/01/13 06:45:09;;;;;;;12.37;6.60;;;;;;;0.24;90.02;100028.22;5059537;28;20456;-68
2021/01/13 06:47:35;;;;;;;12.10;7.40;;;;;;;0.19;90.03;100022.34;5061120;28;20441;-68
2021/01/13 06:50:01;;;;;;;12.50;7.43;;;;;;;0.20;90.07;100018.78;5060731;28;20516;-68
2021/01/13 06:52:30;;;;;;;12.37;6.73;;;;;;;0.20;90.05;100020.59;5056777;28;20483;-68
2021/01/13 06:54:57;;;;;;;12.70;8.07;;;;;;;0.21;90.26;100015.25;5058551;28;20934;-68
2021/01/13 06:57:26;;;;;;;10.13;7.27;;;;;;;0.22;90.25;100029.25;5059145;28;20480;-68
2021/01/13 06:59:52;;;;;;;12.13;7.00;;;;;;;0.32;90.07;100031.28;5059175;28;20591;-68
2021/01/13 07:02:29;;;;;;;7.17;6.47;;;;;;;0.31;90.32;100028.75;5063262;28;20572;-69
2021/01/13 07:04:56;;;;;;;15.07;7.90;;;;;;;0.31;90.04;100032.25;5064514;28;20445;-70
2021/01/13 07:07:22;;;;;;;15.13;6.93;;;;;;;0.40;90.34;100035.31;5062986;28;20472;-70
2021/01/13 07:09:49;;;;;;;13.87;7.40;;;;;;;0.48;89.90;100041.84;5064710;28;20484;-70
2021/01/13 07:12:17;;;;;;;15.00;7.53;;;;;;;0.46;89.78;100041.09;5063385;28;20484;-70
2021/01/13 07:14:45;;;;;;;8.00;7.20;;;;;;;0.49;89.97;100032.19;5061542;28;20494;-70
2021/01/13 07:17:14;;;;;;;10.13;7.30;;;;;;;0.47;89.87;100041.94;5059017;28;20471;-65
2021/01/13 07:19:45;;;;;;;11.50;8.03;;;;;;;0.36;90.59;100035.47;5059203;28;20973;-65
2021/01/13 07:22:11;;;;;;;13.17;6.80;;;;;;;0.32;90.90;100041.81;5062053;28;20507;-68
2021/01/13 07:24:53;;;;;;;9.57;7.10;;;;;;;0.25;91.24;100035.19;5063858;28;20445;-65
2021/01/13 07:27:19;;;;;;;8.80;6.30;;;;;;;0.21;91.84;100041.53;5000129;28;20455;-66
2021/01/13 07:29:46;;;;;;;7.57;6.77;;;;;;;0.16;92.11;100041.78;5001525;28;20459;-65
2021/01/13 07:32:12;;;;;;;6.90;6.30;;;;;;;0.22;91.99;100053.75;5000488;28;20666;-64
2021/01/13 07:34:41;;;;;;;6.97;6.27;;;;;;;0.24;91.93;100048.41;4999474;28;20444;-65
2021/01/13 07:37:10;;;;;;;6.80;5.63;;;;;;;0.25;91.71;100044.84;4981911;28;20504;-64
2021/01/13 07:40:12;;;;;;;7.93;6.70;;;;;;;0.23;91.93;100046.72;5001773;28;20475;-68
2021/01/13 07:42:39;;;;;;;5.97;5.37;;;;;;;0.20;92.14;100046.88;4998586;28;20475;-71
2021/01/13 07:45:07;;;;;;;6.50;5.93;;;;;;;0.17;92.53;100042.63;5000799;28;20432;-70
2021/01/13 07:48:24;;;;;;;8.93;7.23;;;;;;;0.24;92.36;100051.88;4998144;28;20534;-71
2021/01/13 07:50:52;;;;;;;8.53;6.60;;;;;;;0.24;91.84;100036.09;4994622;28;20506;-67
2021/01/13 07:53:26;;;;;;;12.30;9.00;;;;;;;0.24;92.27;100051.88;5001857;28;20568;-68
2021/01/13 07:55:58;;;;;;;9.23;8.27;;;;;;;0.21;92.36;100049.44;4992374;28;20519;-69
2021/01/13 07:58:27;;;;;;;18.77;9.70;;;;;;;0.31;91.99;100044.53;4992260;28;20609;-69
2021/01/13 08:01:22;;;;;;;15.20;9.30;;;;;;;0.29;92.22;100033.25;4987590;28;20494;-69
2021/01/13 08:04:29;;;;;;;10.17;9.17;;;;;;;0.31;92.05;100044.53;4995802;28;20448;-69
2021/01/13 08:06:57;;;;;;;12.47;10.57;;;;;;;0.34;92.08;100047.00;5060645;28;20472;-70
2021/01/13 08:09:25;;;;;;;12.77;9.43;;;;;;;0.34;92.08;100045.22;5060671;28;20491;-70
2021/01/13 08:12:35;;;;;;;15.03;10.67;;;;;;;0.35;91.50;100046.91;5059701;28;20503;-70
2021/01/13 08:15:38;;;;;;;14.00;10.03;;;;;;;0.39;91.68;100052.88;5061725;28;20510;-71
2021/01/13 08:18:50;;;;;;;11.50;8.80;;;;;;;0.39;91.67;100055.50;5059959;28;20840;-73
2021/01/13 08:21:26;;;;;;;15.47;9.80;;;;;;;0.41;91.75;100056.25;5053843;28;20496;-72
2021/01/13 08:24:15;;;;;;;11.73;9.40;;;;;;;0.41;91.89;100047.53;5062004;28;20478;-73
2021/01/13 08:26:41;;;;;;;15.37;8.90;;;;;;;0.39;91.97;100029.19;5045913;28;20472;-68
2021/01/13 08:29:17;;;;;;;14.03;9.60;;;;;;;0.45;92.06;100030.66;5059792;28;20464;-67
2021/01/13 08:31:49;;;;;;;13.60;9.37;;;;;;;0.54;91.47;100025.75;5061292;28;20590;-68
2021/01/13 08:34:17;;;;;;;12.97;9.53;;;;;;;0.58;91.23;100033.50;5059449;28;20464;-67
2021/01/13 08:36:52;;;;;;;13.30;9.63;;;;;;;0.61;90.80;100030.66;5060251;28;20472;-67
2021/01/13 08:39:19;;;;;;;20.73;11.27;;;;;;;0.95;90.04;100042.84;5060540;28;20425;-70
2021/01/13 08:41:46;;;;;;;13.60;10.20;;;;;;;0.91;89.89;100025.53;5058434;28;20511;-67
2021/01/13 08:44:14;;;;;;;19.57;11.60;;;;;;;0.83;89.98;100020.69;5061802;28;21005;-64
2021/01/13 08:46:59;;;;;;;13.30;9.50;;;;;;;0.75;90.28;100028.16;5057284;28;20755;-65
2021/01/13 08:49:26;;;;;;;16.73;7.83;;;;;;;0.65;90.60;100032.22;5060390;28;20433;-65
2021/01/13 08:52:10;;;;;;;13.00;8.83;;;;;;;0.70;91.00;100025.78;5060547;28;20492;-65
2021/01/13 08:54:39;;;;;;;13.53;9.33;;;;;;;0.75;90.85;100033.44;5060365;28;20942;-67
2021/01/13 08:57:08;;;;;;;12.83;9.80;;;;;;;1.01;89.81;100024.09;5056043;28;20504;-66
2021/01/13 08:59:39;;;;;;;15.73;9.70;;;;;;;1.21;88.88;100025.59;5053125;28;20541;-67
2021/01/13 09:02:07;;;;;;;13.10;8.43;;;;;;;1.26;88.55;100025.34;5058031;28;20493;-66
2021/01/13 09:04:50;;;;;;;13.87;8.07;;;;;;;1.37;88.71;100022.09;5058188;28;20473;-67
2021/01/13 09:07:18;;;;;;;10.47;7.10;;;;;;;1.06;89.50;100021.19;5059044;28;20491;-70
2021/01/13 09:09:55;;;;;;;11.60;8.63;;;;;;;1.06;89.85;100029.09;5058788;28;20461;-65
2021/01/13 09:12:36;;;;;;;13.90;8.10;;;;;;;0.96;89.74;100020.88;5054684;28;20491;-65
2021/01/13 09:15:18;;;;;;;14.20;8.27;;;;;;;0.96;90.12;100027.94;5061385;28;20456;-64
2021/01/13 09:17:49;;;;;;;11.27;7.27;;;;;;;0.97;89.82;100011.19;5057234;28;20479;-65
2021/01/13 09:20:31;;;;;;;13.60;8.60;;;;;;;0.98;89.89;100024.25;5058080;28;20492;-64
2021/01/13 09:22:58;;;;;;;9.67;7.30;;;;;;;1.02;89.45;100020.50;5059162;28;20459;-65
2021/01/13 09:25:27;;;;;;;15.73;7.17;;;;;;;1.00;89.78;100026.81;5058479;28;20468;-65
2021/01/13 09:27:55;;;;;;;22.83;8.40;;;;;;;1.06;90.14;100019.41;5059338;28;20453;-67
2021/01/13 09:30:29;;;;;;;10.60;6.20;;;;;;;1.07;89.40;100023.72;5057672;28;20479;-67
2021/01/13 09:32:56;;;;;;;13.80;7.17;;;;;;;1.16;89.02;100022.38;5057877;28;20517;-71
2021/01/13 09:35:24;;;;;;;12.07;7.03;;;;;;;1.18;88.86;100017.03;5059187;28;20854;-73
2021/01/13 09:37:52;;;;;;;13.83;6.70;;;;;;;1.19;89.07;100016.94;5062142;28;20481;-70
2021/01/13 09:40:21;;;;;;;12.80;7.70;;;;;;;1.39;88.18;100028.13;5060015;28;20499;-69
2021/01/13 09:42:55;;;;;;;14.90;7.40;;;;;;;1.61;87.67;100004.88;5060340;28;20565;-70
2021/01/13 09:45:22;;;;;;;15.33;7.87;;;;;;;1.92;87.15;100015.41;5047557;28;20475;-68
2021/01/13 09:47:48;;;;;;;15.83;6.33;;;;;;;1.74;86.61;100014.72;5059214;28;20444;-69
2021/01/13 09:50:20;;;;;;;10.37;6.43;;;;;;;1.47;87.81;100018.84;5058309;28;20460;-69
2021/01/13 09:52:47;;;;;;;12.10;6.57;;;;;;;1.40;88.41;100022.75;5061037;28;20460;-68
2021/01/13 09:55:14;;;;;;;10.90;5.60;;;;;;;1.38;88.34;100015.91;5058440;28;21163;-67
2021/01/13 09:57:44;;;;;;;10.47;6.73;;;;;;;1.44;88.28;100011.13;5058928;28;20484;-69
2021/01/13 10:00:13;;;;;;;11.13;5.70;;;;;;;1.48;88.67;100015.28;5059088;28;20498;-71
2021/01/13 10:02:39;;;;;;;9.73;6.70;;;;;;;1.61;88.41;100025.09;5060724;28;20444;-68
2021/01/13 10:05:07;;;;;;;11.30;6.13;;;;;;;1.77;87.51;100027.69;5058093;28;20456;-71
2021/01/13 10:07:35;;;;;;;9.03;6.33;;;;;;;1.79;86.81;100020.53;5060623;28;20441;-70
2021/01/13 10:10:04;;;;;;;14.37;6.27;;;;;;;1.60;87.19;100018.16;5060812;28;20453;-68
2021/01/13 10:12:53;;;;;;;11.77;5.17;;;;;;;1.84;86.08;100031.66;5058383;28;20503;-68
2021/01/13 10:15:22;;;;;;;12.23;7.00;;;;;;;1.89;86.39;100019.06;4983571;28;20454;-68
2021/01/13 10:17:49;;;;;;;9.27;5.33;;;;;;;1.86;86.10;100019.25;4995490;28;20452;-65
2021/01/13 10:20:17;;;;;;;19.10;7.20;;;;;;;1.98;86.15;100020.28;4984270;28;20516;-65
2021/01/13 10:22:44;;;;;;;10.17;5.40;;;;;;;1.99;86.28;100012.31;4997516;28;20487;-65
2021/01/13 10:25:11;;;;;;;13.97;5.90;;;;;;;1.90;85.39;100023.41;4984184;28;20451;-65
2021/01/13 10:27:44;;;;;;;14.83;5.70;;;;;;;1.95;85.44;100015.22;4995932;28;20537;-66
2021/01/13 10:30:12;;;;;;;10.47;5.50;;;;;;;2.04;85.53;100015.50;4993065;28;20498;-68
2021/01/13 10:32:48;;;;;;;15.63;5.50;;;;;;;2.22;84.76;100010.94;4980348;28;20460;-69
2021/01/13 10:35:15;;;;;;;14.90;6.30;;;;;;;2.24;84.01;100011.69;4975001;28;20471;-64
2021/01/13 10:37:49;;;;;;;12.33;5.43;;;;;;;2.28;83.79;100011.50;5002854;28;20459;-67
2021/01/13 10:40:19;;;;;;;9.77;4.90;;;;;;;2.89;82.11;100015.59;4985649;28;20492;-66
2021/01/13 10:42:48;;;;;;;11.37;4.33;;;;;;;3.24;80.20;100006.34;4985899;28;20464;-70
2021/01/13 10:45:16;;;;;;;10.87;4.50;;;;;;;3.78;77.85;100003.63;4983113;28;20443;-70
2021/01/13 10:47:54;;;;;;;10.00;4.10;;;;;;;4.21;74.91;100000.72;4984215;28;20455;-66
2021/01/13 10:50:23;;;;;;;5.70;3.50;;;;;;;3.45;78.12;99998.81;4983162;28;20474;-68
2021/01/13 10:52:54;;;;;;;9.60;3.60;;;;;;;2.69;81.04;100002.78;5036716;28;20456;-70
2021/01/13 10:55:22;;;;;;;13.40;4.17;;;;;;;2.28;83.13;100000.94;5060018;28;20441;-70
2021/01/13 10:57:50;;;;;;;10.00;4.30;;;;;;;2.14;84.14;100000.00;5062272;28;20479;-69
2021/01/13 11:00:18;;;;;;;6.23;3.83;;;;;;;2.07;84.81;100004.78;5061903;28;20492;-67
2021/01/13 11:02:51;;;;;;;15.27;5.37;;;;;;;2.00;85.31;99986.81;5063102;28;20917;-65
2021/01/13 11:05:19;;;;;;;9.90;3.73;;;;;;;2.02;84.95;99996.31;5060086;28;20454;-66
2021/01/13 11:07:49;;;;;;;10.60;3.67;;;;;;;1.94;85.72;99990.63;5064384;28;20452;-67
2021/01/13 11:10:17;;;;;;;10.20;3.80;;;;;;;1.74;86.03;99986.56;5059741;28;20466;-64
2021/01/13 11:12:43;;;;;;;11.80;4.00;;;;;;;1.67;86.77;99986.06;5062034;28;20522;-68
2021/01/13 11:15:11;;;;;;;10.90;4.43;;;;;;;1.72;86.73;99985.81;5062914;28;20436;-69
2021/01/13 11:17:39;;;;;;;5.60;3.20;;;;;;;1.78;86.62;99977.53;5064122;28;20440;-71
2021/01/13 11:20:07;;;;;;;11.23;3.60;;;;;;;1.86;86.29;99967.38;5062588;28;20586;-65
2021/01/13 11:22:44;;;;;;;6.80;4.10;;;;;;;2.18;84.71;99964.56;5063751;28;20448;-67
2021/01/13 11:25:22;;;;;;;11.77;4.17;;;;;;;2.51;83.32;99949.38;5058808;28;20486;-65
2021/01/13 11:27:59;;;;;;;12.70;3.20;;;;;;;2.51;83.47;99960.78;5057433;28;20479;-65
2021/01/13 11:30:26;;;;;;;10.83;3.87;;;;;;;2.64;81.92;99947.69;5066042;28;20457;-66
2021/01/13 11:32:54;;;;;;;7.13;3.00;;;;;;;2.79;80.75;99941.41;5062035;28;20452;-64
2021/01/13 11:35:31;;;;;;;13.37;2.67;;;;;;;2.78;80.59;99931.78;5060551;28;20460;-64
2021/01/13 11:38:24;;;;;;;10.53;3.43;;;;;;;3.44;78.68;99936.31;5065825;28;20509;-66
2021/01/13 11:41:13;;;;;;;7.97;2.70;;;;;;;3.10;78.92;99936.78;5030328;28;20484;-65
2021/01/13 11:44:08;;;;;;;6.17;2.43;;;;;;;2.33;82.57;99935.56;5065480;28;20476;-64
2021/01/13 11:46:37;;;;;;;7.23;3.20;;;;;;;2.47;84.07;99926.78;5062536;28;20644;-64
2021/01/13 11:49:16;;;;;;;9.37;3.03;;;;;;;2.41;84.71;99935.91;5063351;28;20448;-65